createdAt,value
2022-11-29T00:00:58.334Z,99657.09
2022-11-29T00:03:47.034Z,99664.00
2022-11-29T00:06:35.660Z,99653.63
2022-11-29T00:09:24.041Z,99668.22
2022-11-29T00:12:15.504Z,99654.47
2022-11-29T00:15:05.746Z,99655.28
2022-11-29T00:17:54.325Z,99658.66
2022-11-29T00:20:42.722Z,99648.34
2022-11-29T00:23:31.100Z,99650.88
2022-11-29T00:26:19.604Z,99649.19
2022-11-29T00:29:08.106Z,99657.72
2022-11-29T00:31:57.808Z,99656.84
2022-11-29T00:34:46.902Z,99651.75
2022-11-29T00:37:35.291Z,99650.00
2022-11-29T00:40:23.881Z,99654.34
2022-11-29T00:43:12.282Z,99656.91
2022-11-29T00:46:00.744Z,99653.50
2022-11-29T00:48:50.501Z,99653.50
2022-11-29T00:51:38.926Z,99658.66
2022-11-29T00:54:27.471Z,99652.66
2022-11-29T00:57:15.858Z,99657.00
2022-11-29T01:00:05.058Z,99649.31
2022-11-29T01:02:53.480Z,99659.56
2022-11-29T01:05:43.842Z,99653.50
2022-11-29T01:08:32.218Z,99668.81
2022-11-29T01:11:22.213Z,99658.50
2022-11-29T01:14:11.219Z,99671.19
2022-11-29T01:16:59.645Z,99661.75
2022-11-29T01:19:50.964Z,99669.47
2022-11-29T01:22:40.963Z,99666.91
2022-11-29T01:25:29.407Z,99667.84
2022-11-29T01:28:17.791Z,99671.31
2022-11-29T01:31:09.928Z,99680.78
2022-11-29T01:33:59.478Z,99680.84
2022-11-29T01:36:47.837Z,99673.94
2022-11-29T01:39:37.774Z,99684.19
2022-11-29T01:42:26.302Z,99685.03
2022-11-29T01:45:23.496Z,99669.53
2022-11-29T01:48:12.358Z,99670.34
2022-11-29T01:51:01.588Z,99681.56
2022-11-29T01:53:49.988Z,99672.03
2022-11-29T01:56:39.854Z,99675.38
2022-11-29T01:59:29.761Z,99678.72
2022-11-29T02:02:20.978Z,99679.47
2022-11-29T02:05:10.489Z,99679.56
2022-11-29T02:07:59.146Z,99677.06
2022-11-29T02:11:00.594Z,99671.19
2022-11-29T02:13:57.373Z,99682.59
2022-11-29T02:16:56.270Z,99686.19
2022-11-29T02:20:20.966Z,99686.56
2022-11-29T02:23:24.593Z,99681.06
2022-11-29T02:26:22.277Z,99696.66
2022-11-29T02:29:38.775Z,99691.78
2022-11-29T02:33:27.109Z,99686.84
2022-11-29T02:36:29.639Z,99692.06
2022-11-29T02:39:41.108Z,99689.59
2022-11-29T02:43:16.041Z,99691.50
2022-11-29T02:46:19.772Z,99696.69
2022-11-29T02:49:15.448Z,99695.06
2022-11-29T02:52:05.814Z,99695.13
2022-11-29T02:54:57.725Z,99689.81
2022-11-29T02:57:51.474Z,99683.13
2022-11-29T03:00:43.049Z,99698.44
2022-11-29T03:03:36.692Z,99691.03
2022-11-29T03:06:32.888Z,99698.56
2022-11-29T03:09:27.126Z,99698.56
2022-11-29T03:12:20.713Z,99703.63
2022-11-29T03:15:20.606Z,99707.75
2022-11-29T03:18:23.500Z,99709.44
2022-11-29T03:21:19.079Z,99713.88
2022-11-29T03:24:13.709Z,99710.28
2022-11-29T03:27:05.303Z,99717.09
2022-11-29T03:29:57.798Z,99719.44
2022-11-29T03:32:51.655Z,99715.03
2022-11-29T03:35:43.396Z,99716.59
2022-11-29T03:38:37.763Z,99719.03
2022-11-29T03:41:32.167Z,99725.06
2022-11-29T03:44:23.690Z,99719.84
2022-11-29T03:47:14.967Z,99728.50
2022-11-29T03:50:06.873Z,99714.94
2022-11-29T03:52:57.020Z,99735.63
2022-11-29T03:55:53.636Z,99732.31
2022-11-29T03:58:50.069Z,99726.53
2022-11-29T04:02:12.066Z,99729.91
2022-11-29T04:05:30.596Z,99729.16
2022-11-29T04:08:47.460Z,99718.22
2022-11-29T04:12:22.324Z,99727.72
2022-11-29T04:16:04.290Z,99718.41
2022-11-29T04:19:26.652Z,99711.78
2022-11-29T04:22:29.483Z,99726.06
2022-11-29T04:25:47.226Z,99729.53
2022-11-29T04:28:56.999Z,99734.66
2022-11-29T04:32:02.630Z,99731.22
2022-11-29T04:35:08.653Z,99738.03
2022-11-29T04:38:30.729Z,99745.88
2022-11-29T04:41:35.037Z,99749.22
2022-11-29T04:44:46.215Z,99756.16
2022-11-29T04:47:52.920Z,99757.03
2022-11-29T04:50:49.230Z,99751.06
2022-11-29T04:53:53.910Z,99752.00
2022-11-29T04:56:45.796Z,99764.88
2022-11-29T04:59:40.570Z,99764.88
2022-11-29T05:02:35.625Z,99767.31
2022-11-29T05:05:32.213Z,99773.00
2022-11-29T05:08:27.694Z,99771.91
2022-11-29T05:11:26.325Z,99759.19
2022-11-29T05:14:21.341Z,99774.31
2022-11-29T05:17:26.949Z,99776.69
2022-11-29T05:20:25.298Z,99776.59
2022-11-29T05:23:30.489Z,99778.25
2022-11-29T05:26:23.916Z,99782.38
2022-11-29T05:29:13.873Z,99790.88
2022-11-29T05:32:15.660Z,99788.97
2022-11-29T05:35:41.751Z,99794.88
2022-11-29T05:38:57.749Z,99795.06
2022-11-29T05:41:57.846Z,99797.81
2022-11-29T05:44:47.489Z,99794.50
2022-11-29T05:47:41.186Z,99791.91
2022-11-29T05:50:33.475Z,99785.00
2022-11-29T05:53:32.277Z,99793.59
2022-11-29T05:56:27.445Z,99798.72
2022-11-29T05:59:19.154Z,99808.25
2022-11-29T06:02:18.873Z,99797.41
2022-11-29T06:05:12.994Z,99810.31
2022-11-29T06:08:06.220Z,99811.41
2022-11-29T06:11:00.651Z,99812.28
2022-11-29T06:14:05.518Z,99816.53
2022-11-29T06:17:03.499Z,99818.22
2022-11-29T06:20:00.873Z,99824.13
2022-11-29T06:23:18.154Z,99824.97
2022-11-29T06:26:19.106Z,99829.19
2022-11-29T06:29:26.495Z,99829.06
2022-11-29T06:32:22.532Z,99826.34
2022-11-29T06:35:13.143Z,99828.03
2022-11-29T06:38:02.657Z,99832.97
2022-11-29T06:40:53.965Z,99834.63
2022-11-29T06:43:45.116Z,99838.03
2022-11-29T06:46:47.377Z,99844.72
2022-11-29T06:49:39.870Z,99848.13
2022-11-29T06:52:31.633Z,99843.91
2022-11-29T06:55:23.670Z,99852.41
2022-11-29T06:58:23.673Z,99854.97
2022-11-29T07:01:20.504Z,99850.63
2022-11-29T07:04:05.925Z,99860.00
2022-11-29T07:06:34.088Z,99861.69
2022-11-29T07:09:06.743Z,99853.88
2022-11-29T07:11:35.764Z,99863.31
2022-11-29T07:14:04.591Z,99871.84
2022-11-29T07:16:36.361Z,99878.06
2022-11-29T07:19:13.528Z,99879.16
2022-11-29T07:21:50.506Z,99883.72
2022-11-29T07:24:29.732Z,99884.06
2022-11-29T07:27:02.220Z,99894.69
2022-11-29T07:29:34.177Z,99892.31
2022-11-29T07:32:13.690Z,99898.63
2022-11-29T07:34:50.550Z,99902.28
2022-11-29T07:37:24.458Z,99901.50
2022-11-29T07:39:56.259Z,99905.81
2022-11-29T07:42:27.007Z,99907.59
2022-11-29T07:45:01.044Z,99907.78
2022-11-29T07:47:35.328Z,99912.19
2022-11-29T07:50:06.363Z,99910.66
2022-11-29T07:52:34.535Z,99910.66
2022-11-29T07:55:03.045Z,99922.59
2022-11-29T07:57:31.249Z,99917.56
2022-11-29T07:59:59.350Z,99921.84
2022-11-29T08:02:29.021Z,99921.91
2022-11-29T08:04:57.288Z,99922.88
2022-11-29T08:07:26.834Z,99927.16
2022-11-29T08:09:55.183Z,99931.41
2022-11-29T08:12:23.330Z,99928.72
2022-11-29T08:14:51.524Z,99927.78
2022-11-29T08:17:19.898Z,99926.06
2022-11-29T08:19:48.122Z,99927.72
2022-11-29T08:22:16.243Z,99935.44
2022-11-29T08:24:45.958Z,99940.63
2022-11-29T08:27:14.235Z,99935.44
2022-11-29T08:29:42.408Z,99948.09
2022-11-29T08:32:10.779Z,99944.41
2022-11-29T08:34:38.871Z,99939.94
2022-11-29T08:37:07.021Z,99946.06
2022-11-29T08:39:35.314Z,99949.50
2022-11-29T08:42:07.522Z,99946.06
2022-11-29T08:44:35.655Z,99941.88
2022-11-29T08:47:21.682Z,99953.00
2022-11-29T08:50:03.671Z,99950.50
2022-11-29T08:52:50.305Z,99960.72
2022-11-29T08:55:19.893Z,99961.63
2022-11-29T08:57:52.114Z,99961.50
2022-11-29T09:00:21.858Z,99971.75
2022-11-29T09:02:50.142Z,99976.94
2022-11-29T09:05:18.428Z,99968.38
2022-11-29T09:07:49.640Z,99975.16
2022-11-29T09:10:17.867Z,99978.63
2022-11-29T09:12:46.302Z,99980.28
2022-11-29T09:15:15.958Z,99977.78
2022-11-29T09:17:44.069Z,99979.44
2022-11-29T09:20:13.943Z,99987.13
2022-11-29T09:22:45.473Z,99985.34
2022-11-29T09:25:15.850Z,99989.50
2022-11-29T09:27:45.368Z,99987.69
2022-11-29T09:30:20.572Z,99988.53
2022-11-29T09:32:51.561Z,99996.19
2022-11-29T09:35:19.830Z,99989.22
2022-11-29T09:37:48.037Z,99989.09
2022-11-29T09:40:19.045Z,99996.59
2022-11-29T09:42:54.957Z,99999.84
2022-11-29T09:45:30.134Z,100001.19
2022-11-29T09:48:27.156Z,99998.22
2022-11-29T09:50:58.936Z,100001.31
2022-11-29T09:53:43.511Z,100001.03
2022-11-29T09:56:18.792Z,100004.28
2022-11-29T09:58:49.385Z,100006.69
2022-11-29T10:01:22.734Z,99995.78
2022-11-29T10:03:52.947Z,100008.69
2022-11-29T10:06:25.413Z,100009.75
2022-11-29T10:08:57.192Z,100011.66
2022-11-29T10:11:29.607Z,100010.09
2022-11-29T10:14:00.053Z,100007.69
2022-11-29T10:16:40.769Z,100013.75
2022-11-29T10:19:15.589Z,100011.16
2022-11-29T10:21:46.550Z,100015.53
2022-11-29T10:24:17.892Z,100013.75
2022-11-29T10:26:46.052Z,100012.78
2022-11-29T10:29:15.086Z,100008.31
2022-11-29T10:31:46.883Z,100014.41
2022-11-29T10:34:16.600Z,100012.75
2022-11-29T10:36:47.348Z,100005.09
2022-11-29T10:39:18.353Z,100002.53
2022-11-29T10:41:46.467Z,100005.91
2022-11-29T10:44:15.447Z,100000.75
2022-11-29T10:46:44.953Z,100005.91
2022-11-29T10:49:15.754Z,99998.84
2022-11-29T10:51:43.976Z,100004.69
2022-11-29T10:54:35.551Z,100001.09
2022-11-29T10:57:04.267Z,100003.56
2022-11-29T10:59:33.142Z,100001.78
2022-11-29T11:02:04.111Z,99998.28
2022-11-29T11:04:34.667Z,100005.97
2022-11-29T11:07:03.834Z,100001.66
2022-11-29T11:09:35.264Z,99995.53
2022-11-29T11:12:05.559Z,99996.16
2022-11-29T11:14:36.967Z,100001.19
2022-11-29T11:17:22.411Z,100000.13
2022-11-29T11:19:56.956Z,100004.16
2022-11-29T11:22:25.803Z,100002.41
2022-11-29T11:24:59.571Z,100001.31
2022-11-29T11:27:32.765Z,100006.38
2022-11-29T11:30:01.273Z,100007.22
2022-11-29T11:32:30.796Z,99999.53
2022-11-29T11:34:59.534Z,100012.38
2022-11-29T11:37:28.628Z,100009.75
2022-11-29T11:39:58.335Z,100011.63
2022-11-29T11:42:38.389Z,100009.84
2022-11-29T11:45:28.225Z,100016.69
2022-11-29T11:47:59.400Z,100013.34
2022-11-29T11:50:33.824Z,100016.78
2022-11-29T11:53:05.402Z,100024.47
2022-11-29T11:55:38.742Z,100025.28
2022-11-29T11:58:17.057Z,100026.13
2022-11-29T12:01:04.095Z,100027.88
2022-11-29T12:03:45.545Z,100025.25
2022-11-29T12:06:26.423Z,100027.69
2022-11-29T12:08:57.105Z,100025.13
2022-11-29T12:11:25.475Z,100020.88
2022-11-29T12:13:56.510Z,100026.03
2022-11-29T12:16:28.511Z,100028.47
2022-11-29T12:19:02.033Z,100027.00
2022-11-29T12:21:34.302Z,100028.69
2022-11-29T12:24:06.600Z,100029.75
2022-11-29T12:26:58.300Z,100038.31
2022-11-29T12:29:28.986Z,100032.16
2022-11-29T12:32:07.154Z,100026.88
2022-11-29T12:34:54.101Z,100034.53
2022-11-29T12:37:25.624Z,100032.00
2022-11-29T12:39:58.079Z,100028.59
2022-11-29T12:42:36.271Z,100032.06
2022-11-29T12:45:27.075Z,100034.63
2022-11-29T12:48:02.302Z,100033.81
2022-11-29T12:50:39.887Z,100043.97
2022-11-29T12:53:26.832Z,100041.47
2022-11-29T12:56:01.176Z,100044.94
2022-11-29T12:58:32.502Z,100041.47
2022-11-29T13:01:05.444Z,100036.25
2022-11-29T13:03:39.777Z,100044.72
2022-11-29T13:06:19.063Z,100039.56
2022-11-29T13:09:17.254Z,100042.28
2022-11-29T13:11:47.169Z,100046.72
2022-11-29T13:14:41.972Z,100041.72
2022-11-29T13:17:17.887Z,100053.69
2022-11-29T13:19:49.216Z,100046.84
2022-11-29T13:22:22.299Z,100058.06
2022-11-29T13:24:52.698Z,100047.66
2022-11-29T13:27:23.392Z,100050.09
2022-11-29T13:29:51.599Z,100053.56
2022-11-29T13:32:31.420Z,100051.09
2022-11-29T13:35:02.095Z,100053.56
2022-11-29T13:37:35.335Z,100046.63
2022-11-29T13:40:15.010Z,100050.09
2022-11-29T13:42:46.157Z,100060.53
2022-11-29T13:45:20.401Z,100044.16
2022-11-29T13:47:52.152Z,100052.78
2022-11-29T13:50:40.245Z,100057.03
2022-11-29T13:53:16.094Z,100063.06
2022-11-29T13:55:49.249Z,100054.41
2022-11-29T13:58:37.179Z,100064.75
2022-11-29T14:01:08.358Z,100057.91
2022-11-29T14:03:39.505Z,100067.34
2022-11-29T14:06:14.008Z,100060.31
2022-11-29T14:09:24.728Z,100061.09
2022-11-29T14:12:04.254Z,100055.03
2022-11-29T14:14:36.789Z,100061.75
2022-11-29T14:17:05.983Z,100069.28
2022-11-29T14:19:34.565Z,100064.97
2022-11-29T14:22:31.089Z,100069.13
2022-11-29T14:25:11.888Z,100075.06
2022-11-29T14:28:20.786Z,100076.72
2022-11-29T14:30:51.767Z,100070.56
2022-11-29T14:33:57.437Z,100079.19
2022-11-29T14:36:38.074Z,100074.84
2022-11-29T14:39:32.519Z,100075.63
2022-11-29T14:42:14.416Z,100086.56
2022-11-29T14:44:48.599Z,100086.34
2022-11-29T14:47:25.750Z,100094.09
2022-11-29T14:49:55.835Z,100094.09
2022-11-29T14:52:29.177Z,100093.31
2022-11-29T14:55:30.419Z,100096.84
2022-11-29T14:58:21.127Z,100093.41
2022-11-29T15:01:09.851Z,100100.94
2022-11-29T15:03:49.604Z,100105.03
2022-11-29T15:06:26.474Z,100105.81
2022-11-29T15:09:00.364Z,100099.75
2022-11-29T15:11:49.458Z,100098.88
2022-11-29T15:14:23.388Z,100108.22
2022-11-29T15:17:19.049Z,100106.47
2022-11-29T15:20:11.059Z,100107.31
2022-11-29T15:22:47.358Z,100116.69
2022-11-29T15:25:17.937Z,100115.66
2022-11-29T15:27:53.713Z,100118.84
2022-11-29T15:30:29.475Z,100113.53
2022-11-29T15:32:57.902Z,100116.84
2022-11-29T15:35:27.457Z,100121.75
2022-11-29T15:37:55.658Z,100116.41
2022-11-29T15:40:26.231Z,100125.72
2022-11-29T15:43:00.047Z,100122.22
2022-11-29T15:45:32.277Z,100123.13
2022-11-29T15:48:20.125Z,100123.84
2022-11-29T15:51:01.743Z,100135.00
2022-11-29T15:53:35.287Z,100128.09
2022-11-29T15:56:04.707Z,100135.75
2022-11-29T15:58:33.111Z,100133.19
2022-11-29T16:01:01.462Z,100138.34
2022-11-29T16:03:30.860Z,100145.25
2022-11-29T16:06:04.953Z,100140.19
2022-11-29T16:08:36.265Z,100141.06
2022-11-29T16:11:06.079Z,100115.50
2022-11-29T16:13:49.687Z,100109.03
2022-11-29T16:16:20.975Z,100124.06
2022-11-29T16:18:50.314Z,100129.69
2022-11-29T16:21:30.695Z,100106.84
2022-11-29T16:24:22.213Z,100140.03
2022-11-29T16:26:50.902Z,100118.19
2022-11-29T16:29:24.802Z,100127.16
2022-11-29T16:31:53.592Z,100140.03
2022-11-29T16:34:33.876Z,100130.34
2022-11-29T16:37:06.470Z,100166.63
2022-11-29T16:39:35.038Z,100133.69
2022-11-29T16:42:08.490Z,100122.56
2022-11-29T16:44:59.422Z,100137.78
2022-11-29T16:47:35.397Z,100155.66
2022-11-29T16:50:23.631Z,100172.59
2022-11-29T16:53:00.907Z,100133.47
2022-11-29T16:55:32.690Z,100138.84
2022-11-29T16:58:01.200Z,100159.16
2022-11-29T17:00:35.407Z,100170.94
2022-11-29T17:03:04.080Z,100144.00
2022-11-29T17:05:32.758Z,100148.34
2022-11-29T17:08:03.928Z,100147.38
2022-11-29T17:10:41.329Z,100130.69
2022-11-29T17:13:10.712Z,100155.19
2022-11-29T17:15:38.942Z,100149.88
2022-11-29T17:18:07.297Z,100163.09
2022-11-29T17:20:35.611Z,100134.63
2022-11-29T17:23:05.831Z,100144.91
2022-11-29T17:25:34.233Z,100161.63
2022-11-29T17:28:02.878Z,100174.28
2022-11-29T17:30:31.880Z,100155.88
2022-11-29T17:33:00.504Z,100143.66
2022-11-29T17:35:28.881Z,100168.97
2022-11-29T17:37:57.398Z,100146.50
2022-11-29T17:40:34.553Z,100171.50
2022-11-29T17:43:05.987Z,100197.28
2022-11-29T17:45:34.563Z,100160.19
2022-11-29T17:48:02.891Z,100199.19
2022-11-29T17:50:34.203Z,100200.84
2022-11-29T17:53:02.602Z,100188.94
2022-11-29T17:55:32.394Z,100188.97
2022-11-29T17:58:01.029Z,100189.19
2022-11-29T18:00:29.518Z,100173.03
2022-11-29T18:02:57.892Z,100177.75
2022-11-29T18:05:34.538Z,100197.72
2022-11-29T18:08:06.423Z,100206.19
2022-11-29T18:10:36.395Z,100194.31
2022-11-29T18:13:04.800Z,100206.00
2022-11-29T18:15:34.110Z,100212.91
2022-11-29T18:18:02.903Z,100193.59
2022-11-29T18:20:36.200Z,100212.88
2022-11-29T18:23:07.930Z,100233.59
2022-11-29T18:25:39.692Z,100216.47
2022-11-29T18:28:17.032Z,100182.44
2022-11-29T18:30:50.844Z,100194.88
2022-11-29T18:33:19.347Z,100208.25
2022-11-29T18:35:47.831Z,100221.25
2022-11-29T18:38:16.704Z,100217.97
2022-11-29T18:40:46.829Z,100224.22
2022-11-29T18:43:24.842Z,100223.38
2022-11-29T18:45:53.716Z,100222.59
2022-11-29T18:48:22.341Z,100218.25
2022-11-29T18:50:50.899Z,100205.72
2022-11-29T18:53:19.196Z,100228.69
2022-11-29T18:55:49.136Z,100222.22
2022-11-29T18:58:17.566Z,100205.41
2022-11-29T19:00:45.908Z,100224.69
2022-11-29T19:03:14.350Z,100228.22
2022-11-29T19:05:57.397Z,100248.75
2022-11-29T19:08:31.598Z,100237.56
2022-11-29T19:11:05.343Z,100199.41
2022-11-29T19:17:15.980Z,100236.66
2022-11-29T19:19:44.404Z,100236.63
2022-11-29T19:22:12.935Z,100235.78
2022-11-29T19:24:41.058Z,100238.38
2022-11-29T19:27:10.493Z,100239.19
2022-11-29T19:29:39.880Z,100242.78
2022-11-29T19:32:09.444Z,100241.22
2022-11-29T19:34:37.583Z,100240.50
2022-11-29T19:37:06.310Z,100241.38
2022-11-29T19:39:34.681Z,100233.72
2022-11-29T19:42:02.885Z,100242.28
2022-11-29T19:44:48.226Z,100239.75
2022-11-29T19:47:20.490Z,100239.84
2022-11-29T19:49:48.787Z,100239.84
2022-11-29T19:52:17.036Z,100244.19
2022-11-29T19:54:45.176Z,100242.44
2022-11-29T19:57:13.282Z,100242.53
2022-11-29T19:59:42.754Z,100236.63
2022-11-29T20:02:11.754Z,100246.91
2022-11-29T20:04:40.033Z,100252.16
2022-11-29T20:07:08.185Z,100242.81
2022-11-29T20:09:36.344Z,100251.34
2022-11-29T20:12:04.798Z,100248.91
2022-11-29T20:14:33.048Z,100255.19
2022-11-29T20:17:02.466Z,100256.44
2022-11-29T20:19:30.811Z,100266.06
2022-11-29T20:21:58.944Z,100259.38
2022-11-29T20:24:27.069Z,100270.66
2022-11-29T20:26:55.207Z,100262.13
2022-11-29T20:29:27.104Z,100274.13
2022-11-29T20:31:55.211Z,100268.19
2022-11-29T20:34:25.127Z,100268.28
2022-11-29T20:37:25.061Z,100272.78
2022-11-29T20:39:57.795Z,100274.66
2022-11-29T20:42:48.053Z,100281.66
2022-11-29T20:45:17.508Z,100281.75
2022-11-29T20:47:51.582Z,100275.84
2022-11-29T20:50:23.982Z,100279.47
2022-11-29T20:53:11.135Z,100278.56
2022-11-29T20:55:43.654Z,100280.44
2022-11-29T20:58:15.769Z,100283.19
2022-11-29T21:00:43.911Z,100280.75
2022-11-29T21:03:30.851Z,100281.78
2022-11-29T21:06:20.663Z,100284.53
2022-11-29T21:09:09.098Z,100295.81
2022-11-29T21:11:58.668Z,100289.97
2022-11-29T21:14:47.925Z,100298.59
2022-11-29T21:17:37.235Z,100298.72
2022-11-29T21:20:26.909Z,100296.25
2022-11-29T21:23:21.280Z,100291.16
2022-11-29T21:26:14.010Z,100290.34
2022-11-29T21:29:13.651Z,100288.59
2022-11-29T21:32:02.965Z,100292.75
2022-11-29T21:34:51.599Z,100295.25
2022-11-29T21:37:40.071Z,100297.00
2022-11-29T21:40:30.153Z,100294.44
2022-11-29T21:43:18.767Z,100296.13
2022-11-29T21:46:07.589Z,100301.16
2022-11-29T21:48:56.047Z,100307.78
2022-11-29T21:51:44.421Z,100299.94
2022-11-29T21:54:32.841Z,100304.91
2022-11-29T21:57:22.571Z,100312.50
2022-11-29T22:00:12.187Z,100309.84
2022-11-29T22:03:00.596Z,100303.84
2022-11-29T22:05:49.185Z,100303.63
2022-11-29T22:08:38.833Z,100303.59
2022-11-29T22:11:34.291Z,100310.41
2022-11-29T22:14:24.336Z,100312.00
2022-11-29T22:17:12.774Z,100313.59
2022-11-29T22:20:01.172Z,100304.09
2022-11-29T22:22:49.611Z,100299.72
2022-11-29T22:25:38.028Z,100303.94
2022-11-29T22:28:26.443Z,100309.81
2022-11-29T22:31:16.355Z,100305.53
2022-11-29T22:34:04.842Z,100309.78
2022-11-29T22:36:53.247Z,100312.22
2022-11-29T22:39:41.659Z,100304.53
2022-11-29T22:42:30.077Z,100304.50
2022-11-29T22:45:18.497Z,100307.03
2022-11-29T22:48:08.300Z,100301.88
2022-11-29T22:51:04.419Z,100309.59
2022-11-29T22:53:54.120Z,100313.00
2022-11-29T22:56:43.593Z,100314.66
2022-11-29T22:59:31.984Z,100305.31
2022-11-29T23:02:20.454Z,100318.03
2022-11-29T23:05:10.718Z,100318.00
2022-11-29T23:07:59.223Z,100315.31
2022-11-29T23:10:55.774Z,100310.16
2022-11-29T23:13:44.592Z,100314.47
2022-11-29T23:16:33.510Z,100310.03
2022-11-29T23:19:21.965Z,100308.25
2022-11-29T23:22:11.682Z,100315.13
2022-11-29T23:25:00.191Z,100314.31
2022-11-29T23:27:50.653Z,100313.53
2022-11-29T23:30:39.053Z,100314.38
2022-11-29T23:33:27.700Z,100307.69
2022-11-29T23:36:16.546Z,100315.19
2022-11-29T23:39:06.441Z,100306.66
2022-11-29T23:41:54.829Z,100310.16
2022-11-29T23:44:43.206Z,100315.28
2022-11-29T23:47:31.634Z,100305.00
2022-11-29T23:50:20.047Z,100299.84
2022-11-29T23:53:08.529Z,100312.63
2022-11-29T23:55:59.234Z,100304.06
2022-11-29T23:58:47.674Z,100304.03
